Ana Sayfa
METAR-TAF:

METAR-TAF

Havaalanları :

Lawrence J. Timmerman Airport

Milwaukee, Wisconsin, Amerika Birleşik Devletleri

Enlem: 43-07N, Boylam: 088-02W, yükseklik: 227 m

Güncel hava durumu gözlemi

Rapor saat 01:45 UTC de 59 dakika önce yapıldı.
Rüzgar güneydan 8 kt
Sıcaklık 1°C
Nem 64%
Basınç 1021 hPa
Görüş mesafesi: 16.1 km
Açık gökyüzü

METAR: KMWC 080145Z 19008KT 10SM SKC 01/M05 A3015

Saat: 20:44 (02:44 UTC)


TAF: eksik

4.000'den fazla havaalanı için hava durumu gözlemleri ve tahminleri (METAR ve TAF raporları).

Kullanılabilir istasyonlar harita üzerinde sarı ve kırmızı noktalarla gösterilir.

İstasyonun adını görmek için fareyi noktanın üzerinde gezdirin.

Sonrasında hava gözlem ve tahminlerini görmek için tıklayın.

Haritayı değiştirmek için: yaklaştırmak için siyah artı işaretli yeşil düğmeye ve uzaklaştırmak için de eksi işaretli düğmeye hızla tıklayın; bitişik haritalar için yeşil okları kullanın.


METAR-TAF: